Карточка аэропорта UNKL

Внимание!
Информация на этой странице в стадии наполнения.
Если вы не увидели какой-то информации, или заметили неточность - пожалуйста сообщите нам!
Спасибо!
Команда RU-STAFF
Название аэропортаЕмельяново
Название аэропорта (англ.)Yemelyanovo
Превышение942 ft. (287.1 m.)
Координаты56°10.386', 92°29.598'
Высота перехода7500ft
Эшелон переходаFL090
Коды ответчика5320-5377
Зона ОрВДКрасноярск РПИ (UNKL)
Данные METARUNKL 230430Z 28005MPS 9999 SCT015 20/18 Q1005 R29/190060 TEMPO 26007G14MPS RMK QFE728
Проноз погоды (TAF)UNKL 230154Z 2303/2403 28003G08MPS 9999 BKN016CB TEMPO 2303/2306 33007G14MPS 3000 -SHRA BKN006 BKN016CB BECMG 2306/2309 33005G12MPS -TSRA BECMG 2310/2314 28003G08MPS NSW
NOTAMshow/hide NOTAM
AWOS   TABLE

Информация о ВПП

ВПП Длина ВПП (м.) Покрытие Курс ВПП Частота ILS
113700Асфальтобетон109110.5
293700Асфальтобетон289111.7

Диспетчерские позиции

Позывной Наименование органа УВД Частота
UNKL_APPКрасноярск-Подход127.7
UNKL_R_APPКрасноярск-Круг122.0
UNKL_GNDКрасноярск-Руление121.9
UNKL_TWRКрасноярск-Вышка118.3



Спутниковое изображение